Time;durP1;ratioP1;P1;durP2;ratioP2;P2;SDS_P1;SDS_P2;PMS_P1;PMS_P2;Temp;Humidity;BMP_temperature;BMP_pressure;BME280_temperature;BME280_humidity;BME280_pressure;Samples;Min_cycle;Max_cycle;Signal;HPM_P1;HPM_P2
2023/08/09 00:02:02;;;;;;;3.45;1.20;;;12.90;99.90;;;;;;5024108;28;20041;-83
2023/08/09 00:04:28;;;;;;;4.70;1.40;;;12.90;99.90;;;;;;5010242;28;20042;-80
2023/08/09 00:06:54;;;;;;;4.63;1.17;;;13.00;99.90;;;;;;4995512;28;20037;-83
2023/08/09 00:09:22;;;;;;;5.75;1.20;;;13.00;99.90;;;;;;4995596;28;20073;-83
2023/08/09 00:11:48;;;;;;;3.58;1.17;;;12.90;99.90;;;;;;4995747;28;20042;-83
2023/08/09 00:14:13;;;;;;;3.08;1.17;;;12.90;99.90;;;;;;5012954;28;20509;-83
2023/08/09 00:16:39;;;;;;;2.42;1.00;;;12.80;99.90;;;;;;4995464;28;20497;-82
2023/08/09 00:19:06;;;;;;;2.95;1.30;;;12.90;99.90;;;;;;5011838;28;20084;-85
2023/08/09 00:21:31;;;;;;;4.60;1.30;;;12.80;99.90;;;;;;5018980;28;20489;-85
2023/08/09 00:23:58;;;;;;;3.90;1.20;;;12.90;99.90;;;;;;4997783;28;20030;-87
2023/08/09 00:26:25;;;;;;;4.22;1.30;;;12.80;99.90;;;;;;5016767;28;20057;-83
2023/08/09 00:28:52;;;;;;;4.63;1.25;;;12.90;99.90;;;;;;4999314;28;20398;-82
2023/08/09 00:31:18;;;;;;;4.70;1.10;;;12.70;99.90;;;;;;4999384;28;20533;-84
2023/08/09 00:33:43;;;;;;;3.05;1.20;;;12.70;99.90;;;;;;5015808;28;20038;-84
2023/08/09 00:36:09;;;;;;;4.70;0.93;;;12.70;99.90;;;;;;4998989;28;20038;-82
2023/08/09 00:38:36;;;;;;;3.58;1.20;;;12.60;99.90;;;;;;5016467;28;20046;-83
2023/08/09 00:41:02;;;;;;;5.88;1.20;;;12.60;99.90;;;;;;4998895;28;20030;-83
2023/08/09 00:43:28;;;;;;;3.00;1.23;;;12.50;99.90;;;;;;5015509;28;20126;-82
2023/08/09 00:45:53;;;;;;;4.10;1.02;;;12.50;99.90;;;;;;5015434;28;20129;-82
2023/08/09 00:48:19;;;;;;;2.97;1.10;;;12.50;99.90;;;;;;5015075;28;20092;-83
2023/08/09 00:50:45;;;;;;;4.22;1.23;;;12.50;99.90;;;;;;5015921;28;20030;-83
2023/08/09 00:53:11;;;;;;;4.65;1.20;;;12.40;99.90;;;;;;5030789;28;20106;-84
2023/08/09 00:55:38;;;;;;;4.60;1.13;;;12.40;99.90;;;;;;5035151;28;20437;-84
2023/08/09 00:58:04;;;;;;;3.60;1.17;;;12.30;99.90;;;;;;5018394;28;20124;-84
2023/08/09 01:00:29;;;;;;;2.78;1.15;;;12.30;99.90;;;;;;5033533;28;20117;-83
2023/08/09 01:02:55;;;;;;;5.00;1.35;;;12.30;99.90;;;;;;5034671;28;20037;-84
2023/08/09 01:05:26;;;;;;;4.63;1.30;;;12.30;99.90;;;;;;5034791;28;20539;-84
2023/08/09 01:08:00;;;;;;;4.78;1.33;;;12.30;99.90;;;;;;5034631;28;20116;-84
2023/08/09 01:10:33;;;;;;;3.63;1.10;;;12.20;99.90;;;;;;5003377;28;20395;-83
2023/08/09 01:13:03;;;;;;;5.25;1.23;;;12.30;99.90;;;;;;5014974;28;20037;-84
2023/08/09 01:15:33;;;;;;;4.43;1.38;;;12.10;99.90;;;;;;5016109;28;20045;-84
2023/08/09 01:18:01;;;;;;;4.43;1.17;;;12.10;99.90;;;;;;5015750;28;20037;-84
2023/08/09 01:20:28;;;;;;;5.65;1.60;;;12.10;99.90;;;;;;4997341;28;20517;-83
2023/08/09 01:23:01;;;;;;;2.45;1.05;;;12.10;99.90;;;;;;5013632;28;20041;-84
2023/08/09 01:25:28;;;;;;;2.75;1.35;;;12.10;99.90;;;;;;5034269;28;20044;-83
2023/08/09 01:27:53;;;;;;;2.70;1.23;;;12.00;99.90;;;;;;5017510;28;20060;-82
2023/08/09 01:30:19;;;;;;;5.25;1.65;;;12.00;99.90;;;;;;5034740;28;20482;-82
2023/08/09 01:32:45;;;;;;;4.00;1.35;;;12.10;99.90;;;;;;5032898;28;20041;-81
2023/08/09 01:35:11;;;;;;;2.28;1.00;;;12.00;99.90;;;;;;5033837;28;20041;-81
2023/08/09 01:37:40;;;;;;;3.45;1.48;;;12.00;99.90;;;;;;5033466;28;20048;-83
2023/08/09 01:40:09;;;;;;;4.25;1.40;;;12.00;99.90;;;;;;5031952;28;20052;-82
2023/08/09 01:42:42;;;;;;;4.05;1.38;;;12.00;99.90;;;;;;4998025;28;20045;-83
2023/08/09 01:45:10;;;;;;;3.55;1.40;;;11.90;99.90;;;;;;5008940;28;20048;-82
2023/08/09 01:47:35;;;;;;;4.70;1.40;;;11.90;99.90;;;;;;5017048;28;20584;-80
2023/08/09 01:50:01;;;;;;;2.55;1.40;;;11.90;99.90;;;;;;5033210;28;20125;-81
2023/08/09 01:52:27;;;;;;;5.90;1.80;;;11.90;99.90;;;;;;5033668;28;20045;-80
2023/08/09 01:54:53;;;;;;;2.40;1.30;;;11.90;99.90;;;;;;5016204;28;20409;-80
2023/08/09 01:57:20;;;;;;;4.78;2.65;;;11.80;99.90;;;;;;5031720;28;20044;-79
2023/08/09 01:59:46;;;;;;;6.25;1.77;;;11.80;99.90;;;;;;5032808;28;20107;-80
2023/08/09 02:02:11;;;;;;;3.22;1.48;;;11.80;99.90;;;;;;5024575;28;20486;-81
2023/08/09 02:04:37;;;;;;;5.25;1.65;;;11.90;99.90;;;;;;5030927;28;20040;-80
2023/08/09 02:07:03;;;;;;;2.88;1.60;;;11.80;99.90;;;;;;5022784;28;20124;-80
2023/08/09 02:09:29;;;;;;;5.80;1.77;;;11.80;99.90;;;;;;5016756;28;20044;-80
2023/08/09 02:11:54;;;;;;;4.47;1.55;;;11.80;99.90;;;;;;5016939;28;20432;-81
2023/08/09 02:14:20;;;;;;;4.95;1.90;;;11.80;99.90;;;;;;5017025;28;20045;-81
2023/08/09 02:16:46;;;;;;;4.50;1.98;;;11.80;99.90;;;;;;5014938;28;20045;-81
2023/08/09 02:19:12;;;;;;;4.72;1.70;;;11.80;99.90;;;;;;5032325;28;20052;-80
2023/08/09 02:21:39;;;;;;;3.40;1.65;;;11.80;99.90;;;;;;5016915;28;20037;-80
2023/08/09 02:24:05;;;;;;;4.50;1.30;;;11.80;99.90;;;;;;5023732;28;20117;-80
2023/08/09 02:26:32;;;;;;;4.60;1.83;;;11.80;99.90;;;;;;5035049;28;20502;-81
2023/08/09 02:28:57;;;;;;;4.78;1.70;;;11.80;99.90;;;;;;5013299;28;20510;-81
2023/08/09 02:31:23;;;;;;;3.50;1.60;;;11.80;99.90;;;;;;5020399;28;20050;-80
2023/08/09 02:33:48;;;;;;;4.07;1.52;;;11.80;99.90;;;;;;5033148;28;20041;-80
2023/08/09 02:36:14;;;;;;;4.03;1.90;;;11.80;99.90;;;;;;5032144;28;20042;-81
2023/08/09 02:38:40;;;;;;;3.58;1.73;;;11.80;99.90;;;;;;5032075;28;20041;-81
2023/08/09 02:41:06;;;;;;;4.40;1.80;;;11.80;99.90;;;;;;5015806;28;20042;-80
2023/08/09 02:43:31;;;;;;;3.22;1.55;;;11.80;99.90;;;;;;5032655;28;20121;-80
2023/08/09 02:45:57;;;;;;;5.55;1.70;;;11.80;99.90;;;;;;5029928;28;20045;-80
2023/08/09 02:48:24;;;;;;;4.75;2.08;;;11.70;99.90;;;;;;5015735;28;20037;-80
2023/08/09 02:50:50;;;;;;;5.03;2.13;;;11.70;99.90;;;;;;5020135;28;20037;-81
2023/08/09 02:53:17;;;;;;;7.78;2.00;;;11.70;99.90;;;;;;5015076;28;20112;-80
2023/08/09 02:55:43;;;;;;;4.68;1.83;;;11.60;99.90;;;;;;5017717;28;20442;-80
2023/08/09 02:58:09;;;;;;;4.50;2.05;;;11.60;99.90;;;;;;5032711;28;20041;-80
2023/08/09 03:00:34;;;;;;;4.78;2.13;;;11.60;99.90;;;;;;5008615;28;20033;-80
2023/08/09 03:03:04;;;;;;;4.55;2.00;;;11.50;99.90;;;;;;5016219;28;20391;-81
2023/08/09 03:05:30;;;;;;;4.55;2.08;;;11.50;99.90;;;;;;5015418;28;20048;-80
2023/08/09 03:07:56;;;;;;;4.75;2.30;;;11.50;99.90;;;;;;5032220;28;20033;-80
2023/08/09 03:10:22;;;;;;;5.15;2.00;;;11.50;99.90;;;;;;5006041;28;20072;-81
2023/08/09 03:12:48;;;;;;;5.50;2.22;;;11.50;99.90;;;;;;5009293;28;20040;-81
2023/08/09 03:15:15;;;;;;;4.97;2.25;;;11.40;99.90;;;;;;5008886;28;20038;-80
2023/08/09 03:17:41;;;;;;;3.67;2.10;;;11.40;99.90;;;;;;5029740;28;20496;-81
2023/08/09 03:20:13;;;;;;;4.78;2.17;;;11.50;99.90;;;;;;5026739;28;20034;-81
2023/08/09 03:22:40;;;;;;;5.93;2.45;;;11.40;99.90;;;;;;5039378;28;20041;-81
2023/08/09 03:25:06;;;;;;;4.55;1.98;;;11.40;99.90;;;;;;5053191;28;20079;-82
2023/08/09 03:27:31;;;;;;;4.57;2.13;;;11.30;99.90;;;;;;4996353;28;20450;-82
2023/08/09 03:29:58;;;;;;;6.20;2.20;;;11.30;99.90;;;;;;5012294;28;20134;-81
2023/08/09 03:32:23;;;;;;;5.88;2.45;;;11.30;99.90;;;;;;5012178;28;20050;-82
2023/08/09 03:34:49;;;;;;;6.90;2.20;;;11.30;99.90;;;;;;5024633;28;20045;-81
2023/08/09 03:37:15;;;;;;;5.47;2.40;;;11.30;99.90;;;;;;5003908;28;20084;-81
2023/08/09 03:39:40;;;;;;;6.43;2.53;;;11.30;99.90;;;;;;5000381;28;20042;-82
2023/08/09 03:42:06;;;;;;;5.60;2.30;;;11.30;99.90;;;;;;5013806;28;20533;-82
2023/08/09 03:44:31;;;;;;;4.35;2.20;;;11.30;99.90;;;;;;5015648;28;20042;-81
2023/08/09 03:46:57;;;;;;;6.25;2.30;;;11.30;99.90;;;;;;4996002;28;20125;-81
2023/08/09 03:49:23;;;;;;;5.88;2.50;;;11.30;99.90;;;;;;4996078;28;20048;-81
2023/08/09 03:51:48;;;;;;;4.30;2.25;;;11.30;99.90;;;;;;5012109;28;20053;-81
2023/08/09 03:54:14;;;;;;;6.93;2.03;;;11.30;99.90;;;;;;4998350;28;20037;-81
2023/08/09 03:56:40;;;;;;;4.38;2.22;;;11.30;99.90;;;;;;5032402;28;20490;-81
2023/08/09 03:59:07;;;;;;;5.63;2.20;;;11.20;99.90;;;;;;5006745;28;20512;-82
2023/08/09 04:01:33;;;;;;;5.20;2.40;;;11.20;99.90;;;;;;5017256;28;20042;-81
2023/08/09 04:03:59;;;;;;;6.13;2.45;;;11.30;99.90;;;;;;5000996;28;20036;-81
2023/08/09 04:06:24;;;;;;;6.95;2.67;;;11.30;99.90;;;;;;5022835;28;20029;-82
2023/08/09 04:08:50;;;;;;;4.75;2.47;;;11.30;99.90;;;;;;5015893;28;20490;-82
2023/08/09 04:11:15;;;;;;;5.03;2.20;;;11.30;99.90;;;;;;5010755;28;20091;-82
2023/08/09 04:13:41;;;;;;;5.30;2.22;;;11.30;99.90;;;;;;5017075;28;20414;-83
2023/08/09 04:16:07;;;;;;;4.95;2.42;;;11.30;99.90;;;;;;5020286;28;20046;-82
2023/08/09 04:18:33;;;;;;;4.20;2.10;;;11.20;99.90;;;;;;5015971;28;20046;-81
2023/08/09 04:20:58;;;;;;;5.50;2.20;;;11.20;99.90;;;;;;5018841;28;20040;-81
2023/08/09 04:23:24;;;;;;;4.55;2.30;;;11.20;99.90;;;;;;5024197;28;20486;-82
2023/08/09 04:25:49;;;;;;;4.95;2.55;;;11.20;99.90;;;;;;5015560;28;20042;-82
2023/08/09 04:28:15;;;;;;;6.35;2.38;;;11.20;99.90;;;;;;5017092;28;20054;-81
2023/08/09 04:30:41;;;;;;;6.22;2.47;;;11.20;99.90;;;;;;5000196;28;20507;-82
2023/08/09 04:33:07;;;;;;;4.45;2.28;;;11.20;99.90;;;;;;5012589;28;20041;-81
2023/08/09 04:35:33;;;;;;;4.60;2.38;;;11.20;99.90;;;;;;5018719;28;20052;-81
2023/08/09 04:38:00;;;;;;;5.10;2.72;;;11.10;99.90;;;;;;5008742;28;20493;-81
2023/08/09 04:40:26;;;;;;;4.75;2.38;;;11.20;99.90;;;;;;5033877;28;20128;-81
2023/08/09 04:42:52;;;;;;;4.80;2.42;;;11.20;99.90;;;;;;5014437;28;20113;-81
2023/08/09 04:45:17;;;;;;;5.93;2.50;;;11.10;99.90;;;;;;5008825;28;20092;-81
2023/08/09 04:47:43;;;;;;;6.28;2.60;;;11.10;99.90;;;;;;5010977;28;20443;-81
2023/08/09 04:50:09;;;;;;;5.38;2.90;;;11.20;99.90;;;;;;5034484;28;20042;-82
2023/08/09 04:52:36;;;;;;;5.63;2.90;;;11.20;99.90;;;;;;5035462;28;20046;-81
2023/08/09 04:55:03;;;;;;;6.32;3.10;;;11.20;99.90;;;;;;5018314;28;20049;-81
2023/08/09 04:57:31;;;;;;;6.35;3.08;;;11.20;99.90;;;;;;5019202;28;20052;-81
2023/08/09 04:59:57;;;;;;;6.18;3.00;;;11.30;99.90;;;;;;5012464;28;20069;-81
2023/08/09 05:02:22;;;;;;;4.68;2.42;;;11.30;99.90;;;;;;5016578;28;20069;-81
2023/08/09 05:04:48;;;;;;;6.70;3.10;;;11.30;99.90;;;;;;5034670;28;20188;-80
2023/08/09 05:07:13;;;;;;;6.10;2.80;;;11.40;99.90;;;;;;5032465;28;20468;-80
2023/08/09 05:09:39;;;;;;;6.93;2.50;;;11.40;99.90;;;;;;5018235;28;20041;-81
2023/08/09 05:12:05;;;;;;;5.75;2.78;;;11.40;99.90;;;;;;5005292;28;20042;-81
2023/08/09 05:14:31;;;;;;;6.88;2.72;;;11.50;99.90;;;;;;5030277;28;20033;-81
2023/08/09 05:16:56;;;;;;;6.90;2.55;;;11.50;99.90;;;;;;5032300;28;20041;-81
2023/08/09 05:19:22;;;;;;;6.25;2.67;;;11.60;99.90;;;;;;5029681;28;20045;-81
2023/08/09 05:21:48;;;;;;;5.32;2.90;;;11.60;99.90;;;;;;5009666;28;20079;-81
2023/08/09 05:24:14;;;;;;;6.30;3.00;;;11.70;99.90;;;;;;5014527;28;20487;-81
2023/08/09 05:26:40;;;;;;;7.22;2.78;;;11.70;99.90;;;;;;4997513;28;20053;-81
2023/08/09 05:29:06;;;;;;;10.05;3.20;;;11.80;99.90;;;;;;4999228;28;20049;-81
2023/08/09 05:31:31;;;;;;;5.28;2.53;;;11.80;99.90;;;;;;5005009;28;20048;-81
2023/08/09 05:33:57;;;;;;;5.57;2.45;;;11.80;99.90;;;;;;5002697;28;20399;-81
2023/08/09 05:36:23;;;;;;;5.40;2.42;;;11.90;99.90;;;;;;4998319;28;20053;-82
2023/08/09 05:38:49;;;;;;;4.93;2.22;;;11.90;99.90;;;;;;5028482;28;20473;-81
2023/08/09 05:41:15;;;;;;;5.97;2.58;;;12.00;99.90;;;;;;5010075;28;20066;-81
2023/08/09 05:43:40;;;;;;;5.35;2.50;;;12.00;99.90;;;;;;4997906;28;20038;-82
2023/08/09 05:46:06;;;;;;;4.20;1.90;;;12.10;99.90;;;;;;5001648;28;20065;-82
2023/08/09 05:48:32;;;;;;;5.40;2.17;;;12.30;99.90;;;;;;5011030;28;20037;-82
2023/08/09 05:50:57;;;;;;;4.95;1.95;;;12.20;99.90;;;;;;5014399;28;20041;-82
2023/08/09 05:53:23;;;;;;;5.07;1.98;;;12.40;99.90;;;;;;4997785;28;20046;-82
2023/08/09 05:55:49;;;;;;;5.90;2.13;;;12.40;99.90;;;;;;5014823;28;20068;-82
2023/08/09 05:58:15;;;;;;;6.65;2.40;;;12.50;99.90;;;;;;5032490;28;20485;-82
2023/08/09 06:00:41;;;;;;;5.22;2.30;;;12.60;99.90;;;;;;5033479;28;20045;-82
2023/08/09 06:03:07;;;;;;;6.80;2.38;;;12.70;99.90;;;;;;5019947;28;20048;-82
2023/08/09 06:05:33;;;;;;;5.50;1.88;;;12.80;99.90;;;;;;5030022;28;20185;-82
2023/08/09 06:07:59;;;;;;;4.57;2.10;;;13.00;99.90;;;;;;5020996;28;20037;-82
2023/08/09 06:10:25;;;;;;;5.40;1.98;;;13.10;99.90;;;;;;4997205;28;20042;-82
2023/08/09 06:12:52;;;;;;;5.30;1.92;;;13.20;99.90;;;;;;5026325;28;20038;-81
2023/08/09 06:15:18;;;;;;;5.47;2.10;;;13.30;99.90;;;;;;5013816;28;20044;-82
2023/08/09 06:17:44;;;;;;;6.47;2.10;;;13.50;99.90;;;;;;5013356;28;20057;-81
2023/08/09 06:20:12;;;;;;;5.93;1.95;;;13.60;99.90;;;;;;5009752;28;20076;-81
2023/08/09 06:22:39;;;;;;;5.25;1.90;;;13.70;99.90;;;;;;5033037;28;20037;-81
2023/08/09 06:25:06;;;;;;;5.53;1.67;;;13.80;99.90;;;;;;5017167;28;20456;-81
2023/08/09 06:27:31;;;;;;;4.93;1.52;;;13.90;99.90;;;;;;5021441;28;20073;-81
2023/08/09 06:29:57;;;;;;;4.22;1.70;;;14.00;99.90;;;;;;5025502;28;20119;-81
2023/08/09 06:32:23;;;;;;;4.15;1.55;;;14.10;99.90;;;;;;5032128;28;20175;-81
2023/08/09 06:34:48;;;;;;;4.95;1.70;;;14.20;99.90;;;;;;5010283;28;20041;-80
2023/08/09 06:37:14;;;;;;;4.25;1.70;;;14.30;99.90;;;;;;5008433;28;20064;-81
2023/08/09 06:39:39;;;;;;;7.97;2.22;;;14.40;99.90;;;;;;5028449;28;20038;-80
2023/08/09 06:42:05;;;;;;;4.85;1.80;;;14.50;99.90;;;;;;4996672;28;20065;-80
2023/08/09 06:44:31;;;;;;;7.75;1.50;;;14.60;99.90;;;;;;4996864;28;20038;-80
2023/08/09 06:46:56;;;;;;;6.00;1.92;;;14.70;99.90;;;;;;5014506;28;20120;-80
2023/08/09 06:49:23;;;;;;;5.40;1.48;;;14.80;99.90;;;;;;5023526;28;20569;-80
2023/08/09 06:51:48;;;;;;;4.68;1.55;;;14.80;99.90;;;;;;5015093;28;20045;-80
2023/08/09 06:54:14;;;;;;;5.72;1.58;;;14.90;99.90;;;;;;5026314;28;20053;-79
2023/08/09 06:56:40;;;;;;;7.32;1.38;;;15.00;99.90;;;;;;5023226;28;20046;-73
2023/08/09 06:59:06;;;;;;;3.88;1.50;;;15.10;99.90;;;;;;5007133;28;20033;-73
2023/08/09 07:01:32;;;;;;;3.70;1.50;;;15.20;99.90;;;;;;5024965;28;20188;-73
2023/08/09 07:03:57;;;;;;;3.45;1.30;;;15.20;99.90;;;;;;5012118;28;20128;-74
2023/08/09 07:06:23;;;;;;;6.57;1.60;;;15.30;99.90;;;;;;5006725;28;20030;-74
2023/08/09 07:08:53;;;;;;;6.35;1.42;;;15.30;99.90;;;;;;5017380;28;20049;-74
2023/08/09 07:11:19;;;;;;;4.72;1.50;;;15.50;99.90;;;;;;5011279;28;20041;-79
2023/08/09 07:13:45;;;;;;;4.65;1.30;;;15.60;99.90;;;;;;5029160;28;20445;-81
2023/08/09 07:16:11;;;;;;;4.28;1.60;;;15.60;99.90;;;;;;5024987;28;20648;-81
2023/08/09 07:18:37;;;;;;;3.13;1.30;;;15.70;99.90;;;;;;5031656;28;20041;-79
2023/08/09 07:21:04;;;;;;;4.75;1.27;;;15.70;99.90;;;;;;5024899;28;20049;-78
2023/08/09 07:23:31;;;;;;;8.52;1.48;;;15.80;99.90;;;;;;5022355;28;20040;-77
2023/08/09 07:25:57;;;;;;;3.35;1.10;;;15.90;99.90;;;;;;4999810;28;20051;-77
2023/08/09 07:28:23;;;;;;;3.47;1.40;;;16.00;99.90;;;;;;5003619;28;20493;-78
2023/08/09 07:30:52;;;;;;;7.78;2.00;;;16.10;99.90;;;;;;5019213;28;20045;-78
2023/08/09 07:33:21;;;;;;;6.80;1.48;;;16.20;99.90;;;;;;5031523;28;20105;-78
2023/08/09 07:35:48;;;;;;;4.72;1.38;;;16.30;99.90;;;;;;5027394;28;20041;-77
2023/08/09 07:38:14;;;;;;;3.38;1.20;;;16.30;99.90;;;;;;5015284;28;20045;-77
2023/08/09 07:40:40;;;;;;;3.75;1.20;;;16.40;99.90;;;;;;5024552;28;20041;-77
2023/08/09 07:43:06;;;;;;;4.65;1.30;;;16.50;99.90;;;;;;5027823;28;20037;-78
2023/08/09 07:45:34;;;;;;;4.50;1.30;;;16.50;99.90;;;;;;4998910;28;20041;-78
2023/08/09 07:48:00;;;;;;;5.95;1.30;;;16.60;99.90;;;;;;5025521;28;20053;-78
2023/08/09 07:50:27;;;;;;;4.60;1.20;;;16.70;99.90;;;;;;5018564;28;20473;-78
2023/08/09 07:52:52;;;;;;;3.00;1.20;;;16.80;99.90;;;;;;5014816;28;20041;-78
2023/08/09 07:55:18;;;;;;;5.75;1.10;;;16.80;99.90;;;;;;5019446;28;20084;-78
2023/08/09 07:57:44;;;;;;;3.33;1.10;;;16.90;99.90;;;;;;5029147;28;20033;-78
2023/08/09 08:00:14;;;;;;;5.47;1.30;;;16.90;99.90;;;;;;5026096;28;20042;-78
2023/08/09 08:02:43;;;;;;;3.53;0.93;;;17.00;99.90;;;;;;5025542;28;20037;-78
2023/08/09 08:05:11;;;;;;;6.18;1.40;;;17.00;99.90;;;;;;5027664;28;20038;-77
2023/08/09 08:07:38;;;;;;;4.90;1.40;;;17.20;99.90;;;;;;5016349;28;20109;-79
2023/08/09 08:10:05;;;;;;;5.72;1.40;;;17.30;99.90;;;;;;5028829;28;20048;-77
2023/08/09 08:12:30;;;;;;;4.22;1.13;;;17.30;99.90;;;;;;5012640;28;20053;-78
2023/08/09 08:14:56;;;;;;;5.70;1.50;;;17.40;99.90;;;;;;5007344;28;20415;-78
2023/08/09 08:17:22;;;;;;;4.35;1.23;;;17.40;99.90;;;;;;5027351;28;20565;-78
2023/08/09 08:19:47;;;;;;;3.47;1.20;;;17.40;99.90;;;;;;4997332;28;20037;-78
2023/08/09 08:22:14;;;;;;;4.68;1.10;;;17.40;99.90;;;;;;5018925;28;20417;-78
2023/08/09 08:24:40;;;;;;;3.70;1.20;;;17.50;99.90;;;;;;5024744;28;20041;-77
2023/08/09 08:27:06;;;;;;;5.40;1.60;;;17.50;99.90;;;;;;5019649;28;20083;-78
2023/08/09 08:29:31;;;;;;;6.80;1.52;;;17.50;99.90;;;;;;5015651;28;20505;-78
2023/08/09 08:31:57;;;;;;;4.75;1.40;;;17.60;99.90;;;;;;5018755;28;20053;-77
2023/08/09 08:34:23;;;;;;;4.93;1.00;;;17.70;99.90;;;;;;5008288;28;20053;-78
2023/08/09 08:36:49;;;;;;;4.75;1.10;;;17.70;99.90;;;;;;5022378;28;20504;-78
2023/08/09 08:39:16;;;;;;;3.28;0.93;;;17.80;99.90;;;;;;5019599;28;20458;-78
2023/08/09 08:41:42;;;;;;;4.28;1.15;;;17.90;99.90;;;;;;5001085;28;20065;-78
2023/08/09 08:44:11;;;;;;;3.45;1.10;;;18.00;99.90;;;;;;5020856;28;20034;-78
2023/08/09 08:46:37;;;;;;;4.13;1.00;;;18.10;99.90;;;;;;5013402;28;20038;-78
2023/08/09 08:49:04;;;;;;;3.03;0.95;;;18.20;99.90;;;;;;5026150;28;20432;-78
2023/08/09 08:51:31;;;;;;;3.72;0.93;;;18.20;99.90;;;;;;5025391;28;20405;-78
2023/08/09 08:53:58;;;;;;;4.55;1.30;;;18.10;99.90;;;;;;5013597;28;20129;-78
2023/08/09 08:56:24;;;;;;;3.47;1.00;;;18.20;99.90;;;;;;5001500;28;20049;-78
2023/08/09 08:58:49;;;;;;;7.20;1.05;;;18.20;99.90;;;;;;5011432;28;20049;-77
2023/08/09 09:01:18;;;;;;;4.22;0.98;;;18.20;99.90;;;;;;5029504;28;20040;-77
2023/08/09 09:03:44;;;;;;;3.40;1.10;;;18.30;99.90;;;;;;5011786;28;20033;-78
2023/08/09 09:06:10;;;;;;;4.82;0.90;;;18.30;99.90;;;;;;5030698;28;20037;-77
2023/08/09 09:08:44;;;;;;;4.68;1.10;;;18.50;99.90;;;;;;5031620;28;20116;-77
2023/08/09 09:11:16;;;;;;;4.38;1.05;;;18.40;99.90;;;;;;5021346;28;20034;-77
2023/08/09 09:13:42;;;;;;;2.55;1.05;;;18.40;99.90;;;;;;5027424;28;20038;-78
2023/08/09 09:16:07;;;;;;;4.18;1.10;;;18.50;99.90;;;;;;5028364;28;20111;-77
2023/08/09 09:18:41;;;;;;;4.22;1.00;;;18.60;99.90;;;;;;5012775;28;20120;-77
2023/08/09 09:21:09;;;;;;;4.47;1.10;;;18.70;99.90;;;;;;5021226;28;20044;-78
2023/08/09 09:23:37;;;;;;;3.92;1.10;;;18.80;99.90;;;;;;5008064;28;20073;-73
2023/08/09 09:26:19;;;;;;;5.07;1.10;;;18.80;99.90;;;;;;5033686;28;20029;-73
2023/08/09 09:28:47;;;;;;;5.10;1.00;;;18.70;99.90;;;;;;5009901;28;20525;-72
2023/08/09 09:31:14;;;;;;;6.13;1.10;;;18.60;99.90;;;;;;5014772;28;20064;-75
2023/08/09 09:33:45;;;;;;;4.45;1.20;;;18.70;99.90;;;;;;5021738;28;20113;-75
2023/08/09 09:36:11;;;;;;;6.25;1.42;;;18.80;99.90;;;;;;5004160;28;20033;-75
2023/08/09 09:38:38;;;;;;;6.25;1.20;;;18.90;99.90;;;;;;5032233;28;20053;-75
2023/08/09 09:41:03;;;;;;;4.88;1.35;;;18.70;99.90;;;;;;5012838;28;20471;-76
2023/08/09 09:43:32;;;;;;;6.15;1.17;;;18.80;99.90;;;;;;5026291;28;20037;-77
2023/08/09 09:45:58;;;;;;;2.75;1.10;;;18.80;99.90;;;;;;5032824;28;20037;-83
2023/08/09 09:48:25;;;;;;;2.63;0.93;;;18.80;99.90;;;;;;5033640;28;20497;-79
2023/08/09 09:50:51;;;;;;;5.03;0.88;;;18.90;99.90;;;;;;5023731;28;20037;-78
2023/08/09 09:53:18;;;;;;;3.47;1.00;;;18.90;99.90;;;;;;5031087;28;20468;-78
2023/08/09 09:55:44;;;;;;;4.55;1.45;;;19.00;99.90;;;;;;5029185;28;20100;-78
2023/08/09 09:58:12;;;;;;;2.63;0.90;;;19.20;99.90;;;;;;4999127;28;20088;-80
2023/08/09 10:00:43;;;;;;;5.80;0.93;;;19.30;99.90;;;;;;5004958;28;20064;-80
2023/08/09 10:03:10;;;;;;;4.00;1.08;;;19.30;99.90;;;;;;5032876;28;20033;-80
2023/08/09 10:05:37;;;;;;;3.58;0.90;;;19.20;99.90;;;;;;5030021;28;20079;-79
2023/08/09 10:08:14;;;;;;;4.70;1.15;;;19.10;99.90;;;;;;5023440;28;20044;-77
2023/08/09 10:10:42;;;;;;;3.67;1.15;;;19.10;99.90;;;;;;5027951;28;20510;-77
2023/08/09 10:13:09;;;;;;;4.53;1.00;;;19.10;99.90;;;;;;5014239;28;20041;-70
2023/08/09 10:15:39;;;;;;;4.82;1.25;;;19.20;99.90;;;;;;5026528;28;20117;-69
2023/08/09 10:18:10;;;;;;;5.30;1.10;;;19.30;99.90;;;;;;4997381;28;20046;-70
2023/08/09 10:20:40;;;;;;;2.83;0.80;;;19.50;99.90;;;;;;5009834;28;20497;-73
2023/08/09 10:23:06;;;;;;;2.67;1.05;;;19.50;99.90;;;;;;5029390;28;20041;-73
2023/08/09 10:25:44;;;;;;;3.65;1.20;;;19.50;99.90;;;;;;5028486;28;20125;-73
2023/08/09 10:28:10;;;;;;;3.17;1.00;;;19.30;99.90;;;;;;5012785;28;20437;-73
2023/08/09 10:30:54;;;;;;;2.88;0.90;;;19.40;99.90;;;;;;5008277;28;20045;-73
2023/08/09 10:33:19;;;;;;;3.75;1.10;;;19.40;99.90;;;;;;5024286;28;20033;-73
2023/08/09 10:35:48;;;;;;;2.40;1.02;;;19.30;99.90;;;;;;5027279;28;20044;-73
2023/08/09 10:38:34;;;;;;;4.00;1.10;;;19.40;99.90;;;;;;5001082;28;20037;-72
2023/08/09 10:41:07;;;;;;;4.55;1.00;;;19.50;99.90;;;;;;5014972;28;20053;-73
2023/08/09 10:43:34;;;;;;;3.67;1.25;;;19.50;99.90;;;;;;5004662;28;20060;-73
2023/08/09 10:46:18;;;;;;;3.53;1.00;;;19.50;99.90;;;;;;5009116;28;20390;-73
2023/08/09 10:49:00;;;;;;;2.33;0.90;;;19.50;99.90;;;;;;5021714;28;20044;-73
2023/08/09 10:51:26;;;;;;;4.90;1.00;;;19.40;99.90;;;;;;5026394;28;20494;-73
2023/08/09 10:53:58;;;;;;;2.83;0.98;;;19.20;99.90;;;;;;5022811;28;20517;-73
2023/08/09 10:56:31;;;;;;;2.42;1.00;;;19.00;99.90;;;;;;5006766;28;20120;-72
2023/08/09 10:59:09;;;;;;;3.72;1.20;;;19.00;99.90;;;;;;5006211;28;20045;-73
2023/08/09 11:01:36;;;;;;;4.85;1.25;;;18.90;99.90;;;;;;5027775;28;20042;-73
2023/08/09 11:04:10;;;;;;;2.88;1.00;;;18.90;99.90;;;;;;5036615;28;20042;-85
2023/08/09 11:06:46;;;;;;;4.82;1.00;;;18.80;99.90;;;;;;5032780;28;20103;-83
2023/08/09 11:09:18;;;;;;;3.67;1.10;;;18.80;99.90;;;;;;5031201;28;20045;-84
2023/08/09 11:11:48;;;;;;;3.10;1.00;;;18.80;99.90;;;;;;5026976;28;20041;-83
2023/08/09 11:14:15;;;;;;;3.88;1.10;;;18.90;99.90;;;;;;5014967;28;20393;-83
2023/08/09 11:16:42;;;;;;;4.47;1.08;;;18.90;99.90;;;;;;5014344;28;20045;-80
2023/08/09 11:19:10;;;;;;;3.33;1.00;;;18.90;99.90;;;;;;4996897;28;20136;-77
2023/08/09 11:21:41;;;;;;;1.88;1.00;;;18.90;99.90;;;;;;5026901;28;20034;-77
2023/08/09 11:24:11;;;;;;;2.88;0.90;;;18.80;99.90;;;;;;5018158;28;20044;-77
2023/08/09 11:26:44;;;;;;;2.72;1.05;;;18.90;99.90;;;;;;5032019;28;20085;-77
2023/08/09 11:29:10;;;;;;;4.45;1.40;;;19.00;99.90;;;;;;5002241;28;20688;-79
2023/08/09 11:31:41;;;;;;;2.70;1.08;;;19.00;99.90;;;;;;5021809;28;20155;-79
2023/08/09 11:34:07;;;;;;;4.53;1.00;;;19.00;99.90;;;;;;5001240;28;20552;-79
2023/08/09 11:36:33;;;;;;;4.25;1.20;;;19.00;99.90;;;;;;4997863;28;20054;-79
2023/08/09 11:38:59;;;;;;;3.97;1.35;;;19.00;99.90;;;;;;4995447;28;20402;-79
2023/08/09 11:41:26;;;;;;;2.42;1.05;;;19.00;99.90;;;;;;4998346;28;20033;-79
2023/08/09 11:43:52;;;;;;;3.33;1.15;;;19.00;99.90;;;;;;5012222;28;20393;-80
2023/08/09 11:46:22;;;;;;;3.92;1.30;;;19.20;99.90;;;;;;4995714;28;20033;-80
2023/08/09 11:48:50;;;;;;;4.50;1.10;;;19.20;99.90;;;;;;5011259;28;20120;-80
2023/08/09 11:51:19;;;;;;;4.25;1.20;;;19.20;99.90;;;;;;5032473;28;20041;-80
2023/08/09 11:53:48;;;;;;;3.58;1.27;;;19.20;99.90;;;;;;5011644;28;20164;-80
2023/08/09 11:56:18;;;;;;;6.38;1.30;;;19.00;99.90;;;;;;4997339;28;20033;-80
2023/08/09 11:58:46;;;;;;;2.45;1.50;;;19.00;99.90;;;;;;5006845;28;20111;-80
2023/08/09 12:01:18;;;;;;;3.95;1.10;;;18.90;99.90;;;;;;5014285;28;20171;-80
2023/08/09 12:03:49;;;;;;;2.95;1.30;;;18.90;99.90;;;;;;5030092;28;20109;-79
2023/08/09 12:06:17;;;;;;;6.10;1.40;;;18.90;99.90;;;;;;5025978;28;20042;-80
2023/08/09 12:08:42;;;;;;;2.42;1.30;;;19.00;99.90;;;;;;5022498;28;20048;-75
2023/08/09 12:11:08;;;;;;;4.32;1.30;;;19.10;99.90;;;;;;5003590;28;20038;-75
2023/08/09 12:13:33;;;;;;;1.95;1.20;;;19.00;99.90;;;;;;4997793;28;20061;-75
2023/08/09 12:16:06;;;;;;;3.13;1.20;;;18.90;99.90;;;;;;5018633;28;20065;-76
2023/08/09 12:18:34;;;;;;;2.95;1.50;;;19.00;99.90;;;;;;5029417;28;20050;-76
2023/08/09 12:20:59;;;;;;;4.85;1.30;;;19.00;99.90;;;;;;5033132;28;20116;-75
2023/08/09 12:23:25;;;;;;;3.92;1.40;;;18.90;99.90;;;;;;5018462;28;20116;-75
2023/08/09 12:25:51;;;;;;;3.55;1.30;;;18.90;99.90;;;;;;5010297;28;20037;-75
2023/08/09 12:28:16;;;;;;;4.13;1.50;;;19.00;99.90;;;;;;5026164;28;20417;-75
2023/08/09 12:30:42;;;;;;;3.47;1.25;;;19.20;99.90;;;;;;5001441;28;20078;-76
2023/08/09 12:33:08;;;;;;;3.78;1.23;;;19.30;99.90;;;;;;5034286;28;20037;-76
2023/08/09 12:35:34;;;;;;;3.65;1.30;;;19.30;99.90;;;;;;5034018;28;20403;-76
2023/08/09 12:38:00;;;;;;;3.60;1.40;;;19.20;99.90;;;;;;4998820;28;20077;-75
2023/08/09 12:40:25;;;;;;;4.18;1.40;;;19.20;99.90;;;;;;4999501;28;20084;-75
2023/08/09 12:42:51;;;;;;;4.45;1.42;;;19.10;99.90;;;;;;5012474;28;20030;-76
2023/08/09 12:45:17;;;;;;;4.05;1.40;;;18.90;99.90;;;;;;5017325;28;20489;-75
2023/08/09 12:47:42;;;;;;;3.80;1.42;;;18.90;99.90;;;;;;5034048;28;20048;-76